createdAt,value
2023-04-17T00:02:20.349Z,9.73
2023-04-17T00:05:09.997Z,9.67
2023-04-17T00:07:57.335Z,10.03
2023-04-17T00:10:49.049Z,10.27
2023-04-17T00:13:44.939Z,10.53
2023-04-17T00:16:32.305Z,10.40
2023-04-17T00:19:19.626Z,10.53
2023-04-17T00:22:08.423Z,9.87
2023-04-17T00:24:56.130Z,10.50
2023-04-17T00:27:43.592Z,10.07
2023-04-17T00:30:30.973Z,10.47
2023-04-17T00:33:18.413Z,11.00
2023-04-17T00:36:05.941Z,10.83
2023-04-17T00:38:55.219Z,9.93
2023-04-17T00:41:42.913Z,10.80
2023-04-17T00:44:30.531Z,10.90
2023-04-17T00:47:18.670Z,10.50
2023-04-17T00:50:06.744Z,10.33
2023-04-17T00:52:54.336Z,10.87
2023-04-17T00:55:43.798Z,10.60
2023-04-17T00:58:31.681Z,11.33
2023-04-17T01:01:19.073Z,10.90
2023-04-17T01:04:07.258Z,10.80
2023-04-17T01:06:55.770Z,10.17
2023-04-17T01:09:43.092Z,11.40
2023-04-17T01:12:32.254Z,10.90
2023-04-17T01:15:20.124Z,10.97
2023-04-17T01:18:07.905Z,11.13
2023-04-17T01:20:55.772Z,10.50
2023-04-17T01:23:44.788Z,10.63
2023-04-17T01:26:34.284Z,11.00
2023-04-17T01:29:21.956Z,10.20
2023-04-17T01:32:10.714Z,10.77
2023-04-17T01:34:58.375Z,10.00
2023-04-17T01:37:45.763Z,10.10
2023-04-17T01:40:33.089Z,9.77
2023-04-17T01:43:22.039Z,10.47
2023-04-17T01:46:10.118Z,11.20
2023-04-17T01:48:57.756Z,9.43
2023-04-17T01:51:45.195Z,10.70
2023-04-17T01:54:32.779Z,10.30
2023-04-17T01:57:20.081Z,10.00
2023-04-17T02:00:10.816Z,10.57
2023-04-17T02:03:03.266Z,10.23
2023-04-17T02:05:51.094Z,10.17
2023-04-17T02:08:38.321Z,10.30
2023-04-17T02:11:26.211Z,10.87
2023-04-17T02:14:13.459Z,10.37
2023-04-17T02:17:02.420Z,10.43
2023-04-17T02:19:53.582Z,10.40
2023-04-17T02:22:41.095Z,11.20
2023-04-17T02:25:28.623Z,11.50
2023-04-17T02:28:16.079Z,11.37
2023-04-17T02:31:03.527Z,10.93
2023-04-17T02:33:52.265Z,10.70
2023-04-17T02:36:39.676Z,11.07
2023-04-17T02:39:28.261Z,11.00
2023-04-17T02:42:16.443Z,10.57
2023-04-17T02:45:04.246Z,10.43
2023-04-17T02:47:51.822Z,10.97
2023-04-17T02:50:40.487Z,10.63
2023-04-17T02:53:32.462Z,10.17
2023-04-17T02:56:20.070Z,10.30
2023-04-17T02:59:07.845Z,10.90
2023-04-17T03:01:55.222Z,10.60
2023-04-17T03:04:44.511Z,10.17
2023-04-17T03:07:33.308Z,10.33
2023-04-17T03:10:20.990Z,10.83
2023-04-17T03:13:09.352Z,10.77
2023-04-17T03:15:56.683Z,10.47
2023-04-17T03:18:44.171Z,11.57
2023-04-17T03:21:32.330Z,10.70
2023-04-17T03:24:21.272Z,10.40
2023-04-17T03:27:08.872Z,10.20
2023-04-17T03:30:00.254Z,10.50
2023-04-17T03:32:48.163Z,10.87
2023-04-17T03:35:35.583Z,11.07
2023-04-17T03:38:27.049Z,10.80
2023-04-17T03:41:16.851Z,11.20
2023-04-17T03:44:05.506Z,11.37
2023-04-17T03:46:52.801Z,12.07
2023-04-17T03:49:40.269Z,11.13
2023-04-17T03:52:27.547Z,11.90
2023-04-17T03:55:18.481Z,12.23
2023-04-17T03:58:10.220Z,12.30
2023-04-17T04:00:58.544Z,11.77
2023-04-17T04:03:50.205Z,12.40
2023-04-17T04:06:39.434Z,11.97
2023-04-17T04:09:29.360Z,12.53
2023-04-17T04:12:17.619Z,12.67
2023-04-17T04:15:08.439Z,12.03
2023-04-17T04:17:57.049Z,12.20
2023-04-17T04:20:44.779Z,12.57
2023-04-17T04:23:37.803Z,12.67
2023-04-17T04:26:27.152Z,12.83
2023-04-17T04:29:16.334Z,13.17
2023-04-17T04:32:27.732Z,13.23
2023-04-17T04:35:16.785Z,13.83
2023-04-17T04:38:05.151Z,13.77
2023-04-17T04:41:01.209Z,12.80
2023-04-17T04:43:48.650Z,13.33
2023-04-17T04:46:37.539Z,13.03
2023-04-17T04:49:27.119Z,13.47
2023-04-17T04:52:14.539Z,13.93
2023-04-17T04:55:02.577Z,13.80
2023-04-17T04:57:54.181Z,14.43
2023-04-17T05:00:42.386Z,14.83
2023-04-17T05:03:34.542Z,14.90
2023-04-17T05:06:25.147Z,14.17
2023-04-17T05:09:19.028Z,15.10
2023-04-17T05:12:09.472Z,14.97
2023-04-17T05:14:58.125Z,14.93
2023-04-17T05:17:45.810Z,14.80
2023-04-17T05:20:34.580Z,14.57
2023-04-17T05:23:23.341Z,14.80
2023-04-17T05:26:11.809Z,14.57
2023-04-17T05:29:00.761Z,15.47
2023-04-17T05:31:51.724Z,16.37
2023-04-17T05:34:53.429Z,16.20
2023-04-17T05:37:44.890Z,15.57
2023-04-17T05:40:33.680Z,16.87
2023-04-17T05:43:21.446Z,16.33
2023-04-17T05:46:08.842Z,15.33
2023-04-17T05:48:56.468Z,16.07
2023-04-17T05:51:44.144Z,15.73
2023-04-17T05:54:31.499Z,15.93
2023-04-17T05:57:21.000Z,16.57
2023-04-17T06:00:13.058Z,16.97
2023-04-17T06:03:06.683Z,17.37
2023-04-17T06:05:58.230Z,16.83
2023-04-17T06:08:45.920Z,17.37
2023-04-17T06:11:33.502Z,17.17
2023-04-17T06:14:22.315Z,17.30
2023-04-17T06:17:12.401Z,18.17
2023-04-17T06:20:00.118Z,17.33
2023-04-17T06:22:47.781Z,18.70
2023-04-17T06:25:36.966Z,18.30
2023-04-17T06:28:24.276Z,16.30
2023-04-17T06:31:15.843Z,18.97
2023-04-17T06:34:03.631Z,17.43
2023-04-17T06:36:59.024Z,16.80
2023-04-17T06:39:46.552Z,17.07
2023-04-17T06:42:35.387Z,14.83
2023-04-17T06:45:24.140Z,16.73
2023-04-17T06:48:12.826Z,17.13
2023-04-17T06:51:00.252Z,15.90
2023-04-17T06:53:47.577Z,15.40
2023-04-17T06:56:34.881Z,16.53
2023-04-17T06:59:22.171Z,15.03
2023-04-17T07:02:09.640Z,15.47
2023-04-17T07:04:58.523Z,15.43
2023-04-17T07:07:46.132Z,16.43
2023-04-17T07:10:33.485Z,16.03
2023-04-17T07:13:21.087Z,14.43
2023-04-17T07:16:08.923Z,15.33
2023-04-17T07:18:56.403Z,15.50
2023-04-17T07:21:45.100Z,14.57
2023-04-17T07:24:34.875Z,15.40
2023-04-17T07:27:22.282Z,15.77
2023-04-17T07:30:10.401Z,14.80
2023-04-17T07:32:58.063Z,14.70
2023-04-17T07:35:45.373Z,14.00
2023-04-17T07:38:34.390Z,14.57
2023-04-17T07:41:21.833Z,15.50
2023-04-17T07:44:09.202Z,14.70
2023-04-17T07:46:56.620Z,15.33
2023-04-17T07:49:48.744Z,15.43
2023-04-17T07:52:36.462Z,18.60
2023-04-17T07:55:25.345Z,15.73
2023-04-17T07:58:12.677Z,14.80
2023-04-17T08:01:00.052Z,15.27
2023-04-17T08:03:47.819Z,15.07
2023-04-17T08:06:35.061Z,15.63
2023-04-17T08:09:22.632Z,14.93
2023-04-17T08:12:11.604Z,15.83
2023-04-17T08:14:58.844Z,15.80
2023-04-17T08:17:46.241Z,14.43
2023-04-17T08:20:33.806Z,14.37
2023-04-17T08:23:21.103Z,15.33
2023-04-17T08:26:08.599Z,14.70
2023-04-17T08:29:01.529Z,15.07
2023-04-17T08:31:50.271Z,13.63
2023-04-17T08:34:40.685Z,14.07
2023-04-17T08:37:28.560Z,14.40
2023-04-17T08:40:17.423Z,13.90
2023-04-17T08:43:05.846Z,13.57
2023-04-17T08:45:55.387Z,13.43
2023-04-17T08:48:43.199Z,14.87
2023-04-17T08:51:31.727Z,13.30
2023-04-17T08:54:21.869Z,14.23
2023-04-17T08:57:09.452Z,14.37
2023-04-17T08:59:56.725Z,14.23
2023-04-17T09:02:55.968Z,13.87
2023-04-17T09:05:45.979Z,15.33
2023-04-17T09:08:33.265Z,13.73
2023-04-17T09:11:20.610Z,14.13
2023-04-17T09:14:07.964Z,12.30
2023-04-17T09:16:55.675Z,11.97
2023-04-17T09:20:03.948Z,13.77
2023-04-17T09:22:59.837Z,11.43
2023-04-17T09:25:47.539Z,10.43
2023-04-17T09:28:35.506Z,11.57
2023-04-17T09:31:27.273Z,11.43
2023-04-17T09:34:16.302Z,11.37
2023-04-17T09:37:05.157Z,12.20
2023-04-17T09:39:59.886Z,12.80
2023-04-17T09:42:55.652Z,11.70
2023-04-17T09:45:44.533Z,12.40
2023-04-17T09:48:31.955Z,11.63
2023-04-17T09:51:19.389Z,11.77
2023-04-17T09:54:08.400Z,11.00
2023-04-17T09:56:56.379Z,11.50
2023-04-17T09:59:45.361Z,11.77
2023-04-17T10:02:33.490Z,11.33
2023-04-17T10:05:21.723Z,10.53
2023-04-17T10:08:09.306Z,11.10
2023-04-17T10:11:04.505Z,10.93
2023-04-17T10:14:06.130Z,9.57
2023-04-17T10:16:54.597Z,10.97
2023-04-17T10:19:41.891Z,9.80
2023-04-17T10:22:34.069Z,9.60
2023-04-17T10:25:23.367Z,8.90
2023-04-17T10:28:13.646Z,9.57
2023-04-17T10:31:02.036Z,10.33
2023-04-17T10:33:50.583Z,9.53
2023-04-17T10:36:50.879Z,9.70
2023-04-17T10:39:51.981Z,9.50
2023-04-17T10:42:39.428Z,9.00
2023-04-17T10:45:48.306Z,9.23
2023-04-17T10:48:38.060Z,9.17
2023-04-17T10:51:41.967Z,9.77
2023-04-17T10:54:29.382Z,10.17
2023-04-17T10:57:16.870Z,9.40
2023-04-17T11:00:13.125Z,9.67
2023-04-17T11:03:03.451Z,10.00
2023-04-17T11:05:51.931Z,9.37
2023-04-17T11:08:39.756Z,9.60
2023-04-17T11:11:40.571Z,9.77
2023-04-17T11:14:31.346Z,9.53
2023-04-17T11:17:19.004Z,8.90
2023-04-17T11:20:08.267Z,9.90
2023-04-17T11:22:56.148Z,10.37
2023-04-17T11:25:44.359Z,10.33
2023-04-17T11:28:32.116Z,10.10
2023-04-17T11:31:20.962Z,11.33
2023-04-17T11:34:09.734Z,10.40
2023-04-17T11:36:59.370Z,9.60
2023-04-17T11:39:46.694Z,9.67
2023-04-17T11:42:34.023Z,9.93
2023-04-17T11:45:21.401Z,9.33
2023-04-17T11:48:10.478Z,10.60
2023-04-17T11:50:58.401Z,9.60
2023-04-17T11:53:49.226Z,9.90
2023-04-17T11:56:37.045Z,10.27
2023-04-17T11:59:31.249Z,10.10
2023-04-17T12:02:18.842Z,9.87
2023-04-17T12:05:17.639Z,10.43
2023-04-17T12:08:05.661Z,10.63
2023-04-17T12:10:54.618Z,10.13
2023-04-17T12:13:42.284Z,9.73
2023-04-17T12:16:30.308Z,10.33
2023-04-17T12:19:19.639Z,11.17
2023-04-17T12:22:07.402Z,11.23
2023-04-17T12:24:54.632Z,10.13
2023-04-17T12:27:43.362Z,10.60
2023-04-17T12:30:31.008Z,12.03
2023-04-17T12:33:18.466Z,10.70
2023-04-17T12:36:06.447Z,10.63
2023-04-17T12:38:54.116Z,11.27
2023-04-17T12:41:41.379Z,11.70
2023-04-17T12:44:30.223Z,10.83
2023-04-17T12:47:17.800Z,10.80
2023-04-17T12:50:05.333Z,9.93
2023-04-17T12:52:52.952Z,10.70
2023-04-17T12:55:41.133Z,10.80
2023-04-17T12:58:28.599Z,11.80
2023-04-17T13:01:17.408Z,11.07
2023-04-17T13:04:05.258Z,11.50
2023-04-17T13:06:53.165Z,10.80
2023-04-17T13:09:40.530Z,12.27
2023-04-17T13:12:28.083Z,12.20
2023-04-17T13:15:16.304Z,12.67
2023-04-17T13:18:05.319Z,11.40
2023-04-17T13:20:52.840Z,12.70
2023-04-17T13:23:40.188Z,12.43
2023-04-17T13:26:27.557Z,12.07
2023-04-17T13:29:17.013Z,13.07
2023-04-17T13:32:06.072Z,13.50
2023-04-17T13:34:56.745Z,13.50
2023-04-17T13:37:45.759Z,12.73
2023-04-17T13:40:33.120Z,13.50
2023-04-17T13:43:20.524Z,12.40
2023-04-17T13:46:09.088Z,13.00
2023-04-17T13:48:56.604Z,13.03
2023-04-17T13:51:45.550Z,11.87
2023-04-17T13:54:33.358Z,12.63
2023-04-17T13:57:21.211Z,13.07
2023-04-17T14:00:10.636Z,11.43
2023-04-17T14:02:58.428Z,12.47
2023-04-17T14:05:46.393Z,12.23
2023-04-17T14:08:35.187Z,13.57
2023-04-17T14:11:23.224Z,13.77
2023-04-17T14:14:12.583Z,13.73
2023-04-17T14:17:00.243Z,13.93
2023-04-17T14:19:47.791Z,14.87
2023-04-17T14:22:35.048Z,14.73
2023-04-17T14:25:23.646Z,16.37
2023-04-17T14:28:11.265Z,15.80
2023-04-17T14:30:58.808Z,16.33
2023-04-17T14:33:45.989Z,16.63
2023-04-17T14:36:33.493Z,16.47
2023-04-17T14:39:20.867Z,18.43
2023-04-17T14:42:09.575Z,17.53
2023-04-17T14:44:57.214Z,16.60
2023-04-17T14:47:44.778Z,17.63
2023-04-17T14:50:32.540Z,16.47
2023-04-17T14:53:21.615Z,18.17
2023-04-17T14:56:09.581Z,16.97
2023-04-17T14:58:58.341Z,19.03
2023-04-17T15:01:46.114Z,17.70
2023-04-17T15:04:33.523Z,18.60
2023-04-17T15:07:20.873Z,18.07
2023-04-17T15:10:08.784Z,18.70
2023-04-17T15:13:00.305Z,17.53
2023-04-17T15:15:49.458Z,19.10
2023-04-17T15:18:39.194Z,18.17
2023-04-17T15:21:27.185Z,18.33
2023-04-17T15:24:14.739Z,16.33
2023-04-17T15:27:02.193Z,15.93
2023-04-17T15:29:49.880Z,12.87
2023-04-17T15:32:38.581Z,14.30
2023-04-17T15:35:26.091Z,14.00
2023-04-17T15:38:13.641Z,13.93
2023-04-17T15:41:03.196Z,13.70
2023-04-17T15:43:50.973Z,13.87
2023-04-17T15:46:38.475Z,13.17
2023-04-17T15:49:28.407Z,15.10
2023-04-17T15:52:16.214Z,15.27
2023-04-17T15:55:04.264Z,15.37
2023-04-17T15:57:51.694Z,14.63
2023-04-17T16:00:39.612Z,14.90
2023-04-17T16:03:27.434Z,15.37
2023-04-17T16:06:16.168Z,15.43
2023-04-17T16:09:04.352Z,15.37
2023-04-17T16:11:51.968Z,14.60
2023-04-17T16:14:39.815Z,13.93
2023-04-17T16:17:27.244Z,14.00
2023-04-17T16:20:15.180Z,15.47
2023-04-17T16:23:04.457Z,13.63
2023-04-17T16:25:51.905Z,13.20
2023-04-17T16:28:39.386Z,14.03
2023-04-17T16:31:27.896Z,13.40
2023-04-17T16:34:15.783Z,13.10
2023-04-17T16:37:03.929Z,12.30
2023-04-17T16:39:52.548Z,12.33
2023-04-17T16:42:40.149Z,11.03
2023-04-17T16:45:28.291Z,12.33
2023-04-17T16:48:16.202Z,11.17
2023-04-17T16:51:06.970Z,10.23
2023-04-17T16:53:54.484Z,10.20
2023-04-17T16:56:43.164Z,9.13
2023-04-17T16:59:30.816Z,10.20
2023-04-17T17:02:18.146Z,9.43
2023-04-17T17:05:05.857Z,9.83
2023-04-17T17:07:53.224Z,10.37
2023-04-17T17:10:40.760Z,10.50
2023-04-17T17:13:29.464Z,10.57
2023-04-17T17:16:17.551Z,10.90
2023-04-17T17:19:05.853Z,11.20
2023-04-17T17:21:55.081Z,10.73
2023-04-17T17:24:42.582Z,11.53
2023-04-17T17:27:29.925Z,11.80
2023-04-17T17:30:18.833Z,11.80
2023-04-17T17:33:06.349Z,12.63
2023-04-17T17:35:53.753Z,11.27
2023-04-17T17:38:41.409Z,12.70
2023-04-17T17:41:28.852Z,12.37
2023-04-17T17:44:16.373Z,13.00
2023-04-17T17:47:07.535Z,13.67
2023-04-17T17:49:55.737Z,14.23
2023-04-17T17:52:43.093Z,14.33
2023-04-17T17:55:32.526Z,13.90
2023-04-17T17:58:21.639Z,14.73
2023-04-17T18:01:09.096Z,13.70
2023-04-17T18:03:58.115Z,13.90
2023-04-17T18:06:45.926Z,13.63
2023-04-17T18:09:33.384Z,12.90
2023-04-17T18:12:21.143Z,13.60
2023-04-17T18:15:09.553Z,12.70
2023-04-17T18:17:57.244Z,13.20
2023-04-17T18:20:45.975Z,13.53
2023-04-17T18:23:33.339Z,13.30
2023-04-17T18:26:20.768Z,15.03
2023-04-17T18:29:08.665Z,13.47
2023-04-17T18:31:56.148Z,14.03
2023-04-17T18:34:43.899Z,13.03
2023-04-17T18:37:32.820Z,13.83
2023-04-17T18:40:20.614Z,15.20
2023-04-17T18:43:09.986Z,12.27
2023-04-17T18:45:57.738Z,13.70
2023-04-17T18:48:45.050Z,14.77
2023-04-17T18:51:32.332Z,13.03
2023-04-17T18:54:21.296Z,13.67
2023-04-17T18:57:08.839Z,13.57
2023-04-17T18:59:56.117Z,13.43
2023-04-17T19:02:43.548Z,14.73
2023-04-17T19:05:32.129Z,12.87
2023-04-17T19:08:19.887Z,14.23
2023-04-17T19:11:08.665Z,14.03
2023-04-17T19:13:56.346Z,14.17
2023-04-17T19:16:46.624Z,13.33
2023-04-17T19:19:34.568Z,14.00
2023-04-17T19:22:22.090Z,13.43
2023-04-17T19:25:09.835Z,13.57
2023-04-17T19:27:58.937Z,14.23
2023-04-17T19:30:46.818Z,13.70
2023-04-17T19:33:34.996Z,13.70
2023-04-17T19:36:22.424Z,14.57
2023-04-17T19:39:09.804Z,15.23
2023-04-17T19:41:57.217Z,13.83
2023-04-17T19:44:46.243Z,14.07
2023-04-17T19:47:33.551Z,14.23
2023-04-17T19:50:21.098Z,14.20
2023-04-17T19:53:08.465Z,14.00
2023-04-17T19:55:56.041Z,13.07
2023-04-17T19:58:43.785Z,14.23
2023-04-17T20:01:33.089Z,13.40
2023-04-17T20:04:21.119Z,14.13
2023-04-17T20:07:08.833Z,12.77
2023-04-17T20:09:56.142Z,14.00
2023-04-17T20:12:43.522Z,13.97
2023-04-17T20:15:31.085Z,13.37
2023-04-17T20:18:19.870Z,13.90
2023-04-17T20:21:07.550Z,13.63
2023-04-17T20:23:55.728Z,14.53
2023-04-17T20:26:44.809Z,13.77
2023-04-17T20:29:32.169Z,13.00
2023-04-17T20:32:20.237Z,13.90
2023-04-17T20:35:10.052Z,13.73
2023-04-17T20:37:58.120Z,12.57
2023-04-17T20:40:45.544Z,12.87
2023-04-17T20:43:33.541Z,13.20
2023-04-17T20:46:21.372Z,13.47
2023-04-17T20:49:09.157Z,13.13
2023-04-17T20:51:58.492Z,13.17
2023-04-17T20:54:46.078Z,12.83
2023-04-17T20:57:33.405Z,13.40
2023-04-17T21:00:21.080Z,11.43
2023-04-17T21:03:08.312Z,12.53
2023-04-17T21:05:55.615Z,12.47
2023-04-17T21:08:44.346Z,11.53
2023-04-17T21:11:32.376Z,12.47
2023-04-17T21:14:20.185Z,11.77
2023-04-17T21:17:07.582Z,12.37
2023-04-17T21:19:55.762Z,11.67
2023-04-17T21:22:43.300Z,12.00
2023-04-17T21:25:32.136Z,11.40
2023-04-17T21:28:19.799Z,11.03
2023-04-17T21:31:10.164Z,12.10
2023-04-17T21:33:57.951Z,12.27
2023-04-17T21:36:45.426Z,11.67
2023-04-17T21:39:33.373Z,12.30
2023-04-17T21:42:22.395Z,13.07
2023-04-17T21:45:10.635Z,11.83
2023-04-17T21:47:58.494Z,11.30
2023-04-17T21:50:45.669Z,12.50
2023-04-17T21:53:33.600Z,11.93
2023-04-17T21:56:23.816Z,12.53
2023-04-17T21:59:12.873Z,11.83
2023-04-17T22:02:01.226Z,12.63
2023-04-17T22:04:48.960Z,11.40
2023-04-17T22:07:47.303Z,11.57
2023-04-17T22:10:39.346Z,9.47
2023-04-17T22:13:26.715Z,11.13
2023-04-17T22:16:15.755Z,11.43
2023-04-17T22:19:02.960Z,11.03
2023-04-17T22:21:50.445Z,11.83
2023-04-17T22:24:37.970Z,11.37
2023-04-17T22:27:25.225Z,11.33
2023-04-17T22:30:12.796Z,11.90
2023-04-17T22:33:01.843Z,11.87
2023-04-17T22:35:49.905Z,12.07
2023-04-17T22:38:37.148Z,12.13
2023-04-17T22:41:24.652Z,12.03
2023-04-17T22:44:12.274Z,11.80
2023-04-17T22:46:59.900Z,10.90
2023-04-17T22:49:48.584Z,11.33
2023-04-17T22:52:36.331Z,11.17
2023-04-17T22:55:23.927Z,11.13
2023-04-17T22:58:11.441Z,10.40
2023-04-17T23:00:59.054Z,10.63
2023-04-17T23:03:46.916Z,11.87
2023-04-17T23:06:35.743Z,10.87
2023-04-17T23:09:23.438Z,10.57
2023-04-17T23:12:11.182Z,10.23
2023-04-17T23:14:59.443Z,11.07
2023-04-17T23:17:46.935Z,10.83
2023-04-17T23:20:34.139Z,10.10
2023-04-17T23:23:22.941Z,9.70
2023-04-17T23:26:10.852Z,10.37
2023-04-17T23:28:58.680Z,10.50
2023-04-17T23:31:46.483Z,10.50
2023-04-17T23:34:33.806Z,10.90
2023-04-17T23:37:21.190Z,10.40
2023-04-17T23:40:10.813Z,9.10
2023-04-17T23:42:58.460Z,10.57
2023-04-17T23:45:45.794Z,10.33
2023-04-17T23:48:33.331Z,9.53
2023-04-17T23:51:20.952Z,11.50
2023-04-17T23:54:08.899Z,10.37
2023-04-17T23:56:58.038Z,9.53
2023-04-17T23:59:45.531Z,9.50
